This is the latest recevied weather packets stored in our database for station/object HJ3GNC-15. If no packets are shown the sender has not sent any weather packets the latest 10 day(s).
| Time | Temp. | Humidity | Pressure | Rain* | Wind** | Luminosity | Snow |
|---|---|---|---|---|---|---|---|
| 1777239656 | 20° C | 80% | 1009 hPa | 0 mm | - | - | - |
| 1777238715 | 20.56° C | 71% | 1009 hPa | 0 mm | - | - | - |
| 1777236692 | 20.56° C | 73% | 1009 hPa | 0 mm | - | - | - |
| 1777235746 | 20.56° C | 73% | 1009 hPa | 0 mm | - | - | - |
| 1777234804 | 20.56° C | 70% | 1009 hPa | 0 mm | - | - | - |
| 1777233857 | 20.56° C | 70% | 1009 hPa | 0 mm | - | - | - |
| 1777232900 | 20.56° C | 71% | 1009 hPa | 0 mm | - | - | - |
| 1777230909 | 20.56° C | 69% | 1010 hPa | 0 mm | - | - | - |
| 1777229962 | 20.56° C | 70% | 1010 hPa | 0 mm | - | - | - |
| 1777228966 | 20.56° C | 70% | 1010 hPa | 0 mm | - | - | - |
| 1777227908 | 20.56° C | 72% | 1012 hPa | 0 mm | - | - | - |
| 1777226959 | 18.89° C | 76% | 1012 hPa | 0 mm | - | - | - |
| 1777226014 | 18.89° C | 76% | 1012 hPa | 0 mm | - | - | - |
| 1777225067 | 18.89° C | 76% | 1012 hPa | 0 mm | - | - | - |
| 1777224113 | 17.78° C | 76% | 1013 hPa | 0 mm | - | - | - |
| 1777223107 | 17.78° C | 77% | 1013 hPa | 0 mm | - | - | - |
| 1777222161 | 17.78° C | 78% | 1013 hPa | 0 mm | - | - | - |
| 1777220179 | 17.22° C | 82% | 1015 hPa | 0 mm | - | - | - |
| 1777219215 | 17.22° C | 84% | 1015 hPa | 0 mm | - | - | - |
| 1777218270 | 17.22° C | 84% | 1015 hPa | 0 mm | - | - | - |
| 1777217329 | 16.11° C | 87% | 1016 hPa | 0 mm | - | - | - |
| 1777216374 | 16.11° C | 89% | 1016 hPa | 0 mm | - | - | - |
| 1777215407 | 16.11° C | 89% | 1016 hPa | 0 mm | - | - | - |
| 1777214431 | 16.11° C | 89% | 1016 hPa | 0 mm | - | - | - |
| 1777213438 | 15.56° C | 91% | 1016 hPa | 0 mm | - | - | - |
* Rain latest hour (hover to see other rain measurements)
** Current wind speed in m/s (hover to see current wind gust speed)